sensor_id;sensor_type;location;lat;lon;timestamp;pressure;altitude;pressure_sealevel;temperature;humidity
16190;BME280;41754;51.498;7.540;2023-06-24T00:01:22;101215.94;;;15.81;81.86
16190;BME280;41754;51.498;7.540;2023-06-24T00:03:51;101217.03;;;15.79;82.27
16190;BME280;41754;51.498;7.540;2023-06-24T00:06:20;101216.91;;;15.80;82.25
16190;BME280;41754;51.498;7.540;2023-06-24T00:08:49;101212.97;;;15.73;82.22
16190;BME280;41754;51.498;7.540;2023-06-24T00:11:17;101222.03;;;15.57;83.18
16190;BME280;41754;51.498;7.540;2023-06-24T00:13:44;101219.13;;;15.73;82.34
16190;BME280;41754;51.498;7.540;2023-06-24T00:16:12;101210.91;;;15.52;82.04
16190;BME280;41754;51.498;7.540;2023-06-24T00:18:40;101214.28;;;15.54;82.05
16190;BME280;41754;51.498;7.540;2023-06-24T00:21:09;101217.16;;;15.51;82.01
16190;BME280;41754;51.498;7.540;2023-06-24T00:23:37;101217.78;;;15.55;81.86
16190;BME280;41754;51.498;7.540;2023-06-24T00:26:05;101211.84;;;15.51;82.41
16190;BME280;41754;51.498;7.540;2023-06-24T00:28:33;101216.22;;;15.52;82.35
16190;BME280;41754;51.498;7.540;2023-06-24T00:31:01;101213.56;;;15.52;82.72
16190;BME280;41754;51.498;7.540;2023-06-24T00:33:29;101208.47;;;15.49;82.84
16190;BME280;41754;51.498;7.540;2023-06-24T00:36:03;101205.81;;;15.49;83.18
16190;BME280;41754;51.498;7.540;2023-06-24T00:38:33;101209.34;;;15.37;83.63
16190;BME280;41754;51.498;7.540;2023-06-24T00:41:00;101207.34;;;15.40;83.24
16190;BME280;41754;51.498;7.540;2023-06-24T00:43:28;101205.88;;;15.24;82.92
16190;BME280;41754;51.498;7.540;2023-06-24T00:45:57;101212.44;;;15.31;82.96
16190;BME280;41754;51.498;7.540;2023-06-24T00:48:25;101208.84;;;15.32;82.75
16190;BME280;41754;51.498;7.540;2023-06-24T00:50:53;101203.63;;;15.30;83.14
16190;BME280;41754;51.498;7.540;2023-06-24T00:53:21;101208.84;;;15.32;83.22
16190;BME280;41754;51.498;7.540;2023-06-24T00:55:54;101215.09;;;15.31;83.32
16190;BME280;41754;51.498;7.540;2023-06-24T00:58:23;101213.38;;;15.30;83.60
16190;BME280;41754;51.498;7.540;2023-06-24T01:00:51;101212.53;;;15.29;83.78
16190;BME280;41754;51.498;7.540;2023-06-24T01:03:24;101213.38;;;15.30;83.70
16190;BME280;41754;51.498;7.540;2023-06-24T01:05:53;101215.28;;;15.28;83.96
16190;BME280;41754;51.498;7.540;2023-06-24T01:08:21;101215.72;;;15.21;84.34
16190;BME280;41754;51.498;7.540;2023-06-24T01:10:50;101214.03;;;15.20;84.08
16190;BME280;41754;51.498;7.540;2023-06-24T01:13:19;101206.81;;;15.23;83.91
16190;BME280;41754;51.498;7.540;2023-06-24T01:15:48;101205.34;;;15.18;84.21
16190;BME280;41754;51.498;7.540;2023-06-24T01:18:21;101210.22;;;15.12;84.57
16190;BME280;41754;51.498;7.540;2023-06-24T01:20:55;101207.06;;;15.07;84.71
16190;BME280;41754;51.498;7.540;2023-06-24T01:23:46;101209.72;;;15.07;84.32
16190;BME280;41754;51.498;7.540;2023-06-24T01:26:32;101213.19;;;15.07;84.07
16190;BME280;41754;51.498;7.540;2023-06-24T01:29:26;101208.31;;;15.01;83.97
16190;BME280;41754;51.498;7.540;2023-06-24T01:32:05;101203.00;;;15.01;84.16
16190;BME280;41754;51.498;7.540;2023-06-24T01:34:37;101206.53;;;15.01;84.15
16190;BME280;41754;51.498;7.540;2023-06-24T01:37:12;101215.53;;;14.99;84.45
16190;BME280;41754;51.498;7.540;2023-06-24T01:39:46;101204.94;;;14.99;84.31
16190;BME280;41754;51.498;7.540;2023-06-24T01:42:16;101195.28;;;14.98;84.34
16190;BME280;41754;51.498;7.540;2023-06-24T01:44:47;101189.44;;;14.93;84.76
16190;BME280;41754;51.498;7.540;2023-06-24T01:47:19;101196.75;;;14.89;85.22
16190;BME280;41754;51.498;7.540;2023-06-24T01:49:52;101188.41;;;14.95;85.09
16190;BME280;41754;51.498;7.540;2023-06-24T01:52:21;101180.34;;;14.97;84.94
16190;BME280;41754;51.498;7.540;2023-06-24T01:54:51;101188.41;;;14.95;84.80
16190;BME280;41754;51.498;7.540;2023-06-24T01:57:22;101186.06;;;14.91;84.95
16190;BME280;41754;51.498;7.540;2023-06-24T01:59:52;101191.03;;;14.82;85.33
16190;BME280;41754;51.498;7.540;2023-06-24T02:02:23;101192.00;;;14.81;85.17
16190;BME280;41754;51.498;7.540;2023-06-24T02:04:53;101196.53;;;14.79;85.28
16190;BME280;41754;51.498;7.540;2023-06-24T02:07:22;101200.22;;;14.64;85.16
16190;BME280;41754;51.498;7.540;2023-06-24T02:09:51;101206.72;;;14.60;85.13
16190;BME280;41754;51.498;7.540;2023-06-24T02:12:19;101207.66;;;14.59;85.34
16190;BME280;41754;51.498;7.540;2023-06-24T02:14:49;101206.38;;;14.64;85.23
16190;BME280;41754;51.498;7.540;2023-06-24T02:17:18;101197.28;;;14.69;85.00
16190;BME280;41754;51.498;7.540;2023-06-24T02:19:49;101199.84;;;14.70;85.19
16190;BME280;41754;51.498;7.540;2023-06-24T02:22:18;101194.53;;;14.70;85.29
16190;BME280;41754;51.498;7.540;2023-06-24T02:24:48;101195.16;;;14.74;85.32
16190;BME280;41754;51.498;7.540;2023-06-24T02:27:17;101191.88;;;14.70;85.40
16190;BME280;41754;51.498;7.540;2023-06-24T02:29:46;101185.63;;;14.71;85.26
16190;BME280;41754;51.498;7.540;2023-06-24T02:32:14;101195.47;;;14.69;85.29
16190;BME280;41754;51.498;7.540;2023-06-24T02:34:42;101197.47;;;14.65;85.47
16190;BME280;41754;51.498;7.540;2023-06-24T02:37:12;101201.31;;;14.61;85.63
16190;BME280;41754;51.498;7.540;2023-06-24T02:39:40;101194.56;;;14.56;85.41
16190;BME280;41754;51.498;7.540;2023-06-24T02:42:11;101203.38;;;14.56;85.32
16190;BME280;41754;51.498;7.540;2023-06-24T02:44:39;101200.44;;;14.61;85.17
16190;BME280;41754;51.498;7.540;2023-06-24T02:47:09;101198.75;;;14.60;85.19
16190;BME280;41754;51.498;7.540;2023-06-24T02:49:39;101203.38;;;14.56;85.34
16190;BME280;41754;51.498;7.540;2023-06-24T02:52:07;101202.25;;;14.60;85.17
16190;BME280;41754;51.498;7.540;2023-06-24T02:54:37;101204.22;;;14.57;85.19
16190;BME280;41754;51.498;7.540;2023-06-24T02:57:29;101206.72;;;14.60;85.03
16190;BME280;41754;51.498;7.540;2023-06-24T03:00:17;101201.59;;;14.57;85.06
16190;BME280;41754;51.498;7.540;2023-06-24T03:03:07;101204.06;;;14.60;84.87
16190;BME280;41754;51.498;7.540;2023-06-24T03:05:40;101206.34;;;14.52;85.17
16190;BME280;41754;51.498;7.540;2023-06-24T03:08:11;101201.03;;;14.52;85.20
16190;BME280;41754;51.498;7.540;2023-06-24T03:10:42;101210.91;;;14.50;85.20
16190;BME280;41754;51.498;7.540;2023-06-24T03:13:16;101209.72;;;14.54;85.15
16190;BME280;41754;51.498;7.540;2023-06-24T03:15:49;101207.38;;;14.49;85.18
16190;BME280;41754;51.498;7.540;2023-06-24T03:18:17;101203.75;;;14.37;85.19
16190;BME280;41754;51.498;7.540;2023-06-24T03:20:47;101203.31;;;14.31;85.47
16190;BME280;41754;51.498;7.540;2023-06-24T03:23:18;101198.69;;;14.47;85.14
16190;BME280;41754;51.498;7.540;2023-06-24T03:25:49;101206.19;;;14.40;85.29
16190;BME280;41754;51.498;7.540;2023-06-24T03:28:17;101208.00;;;14.53;85.15
16190;BME280;41754;51.498;7.540;2023-06-24T03:30:50;101208.78;;;14.55;84.91
16190;BME280;41754;51.498;7.540;2023-06-24T03:33:19;101207.72;;;14.57;84.64
16190;BME280;41754;51.498;7.540;2023-06-24T03:35:47;101209.16;;;14.63;84.26
16190;BME280;41754;51.498;7.540;2023-06-24T03:38:19;101207.03;;;14.68;84.01
16190;BME280;41754;51.498;7.540;2023-06-24T03:40:49;101207.03;;;14.68;83.86
16190;BME280;41754;51.498;7.540;2023-06-24T03:43:17;101209.56;;;14.70;83.74
16190;BME280;41754;51.498;7.540;2023-06-24T03:45:44;101209.03;;;14.77;83.49
16190;BME280;41754;51.498;7.540;2023-06-24T03:48:12;101208.94;;;14.79;83.13
16190;BME280;41754;51.498;7.540;2023-06-24T03:50:40;101217.41;;;14.71;83.81
16190;BME280;41754;51.498;7.540;2023-06-24T03:53:08;101205.47;;;14.78;83.61
16190;BME280;41754;51.498;7.540;2023-06-24T03:55:37;101215.50;;;14.86;83.21
16190;BME280;41754;51.498;7.540;2023-06-24T03:58:06;101207.03;;;14.94;82.84
16190;BME280;41754;51.498;7.540;2023-06-24T04:00:35;101209.50;;;14.97;82.98
16190;BME280;41754;51.498;7.540;2023-06-24T04:03:06;101210.53;;;15.07;82.77
16190;BME280;41754;51.498;7.540;2023-06-24T04:05:36;101212.53;;;15.16;82.59
16190;BME280;41754;51.498;7.540;2023-06-24T04:08:05;101210.19;;;15.25;82.34
16190;BME280;41754;51.498;7.540;2023-06-24T04:10:34;101215.81;;;15.33;82.07
16190;BME280;41754;51.498;7.540;2023-06-24T04:13:03;101214.81;;;15.47;81.87
16190;BME280;41754;51.498;7.540;2023-06-24T04:15:32;101221.19;;;15.57;81.76
16190;BME280;41754;51.498;7.540;2023-06-24T04:18:00;101216.94;;;15.67;81.50
16190;BME280;41754;51.498;7.540;2023-06-24T04:20:28;101220.31;;;15.82;81.31
16190;BME280;41754;51.498;7.540;2023-06-24T04:22:58;101220.03;;;15.98;81.21
16190;BME280;41754;51.498;7.540;2023-06-24T04:25:26;101217.66;;;16.06;80.74
16190;BME280;41754;51.498;7.540;2023-06-24T04:27:56;101215.19;;;16.16;80.15
16190;BME280;41754;51.498;7.540;2023-06-24T04:30:25;101219.41;;;16.19;80.32
16190;BME280;41754;51.498;7.540;2023-06-24T04:32:54;101219.78;;;16.25;79.90
16190;BME280;41754;51.498;7.540;2023-06-24T04:35:22;101216.47;;;16.35;79.43
16190;BME280;41754;51.498;7.540;2023-06-24T04:37:49;101227.66;;;16.27;79.04
16190;BME280;41754;51.498;7.540;2023-06-24T04:40:18;101223.63;;;16.45;78.56
16190;BME280;41754;51.498;7.540;2023-06-24T04:42:46;101223.56;;;16.58;77.97
16190;BME280;41754;51.498;7.540;2023-06-24T04:45:14;101226.13;;;16.71;77.51
16190;BME280;41754;51.498;7.540;2023-06-24T04:47:42;101226.50;;;16.78;77.19
16190;BME280;41754;51.498;7.540;2023-06-24T04:50:12;101234.91;;;16.84;76.70
16190;BME280;41754;51.498;7.540;2023-06-24T04:52:40;101221.25;;;17.00;75.31
16190;BME280;41754;51.498;7.540;2023-06-24T04:55:08;101218.59;;;17.00;74.85
16190;BME280;41754;51.498;7.540;2023-06-24T04:57:37;101213.28;;;17.12;71.80
16190;BME280;41754;51.498;7.540;2023-06-24T05:00:06;101212.81;;;17.29;70.68
16190;BME280;41754;51.498;7.540;2023-06-24T05:02:34;101215.34;;;17.42;69.47
16190;BME280;41754;51.498;7.540;2023-06-24T05:05:02;101209.66;;;17.58;69.16
16190;BME280;41754;51.498;7.540;2023-06-24T05:07:32;101221.97;;;17.70;68.46
16190;BME280;41754;51.498;7.540;2023-06-24T05:10:00;101221.09;;;17.81;67.83
16190;BME280;41754;51.498;7.540;2023-06-24T05:12:28;101225.81;;;18.00;67.02
16190;BME280;41754;51.498;7.540;2023-06-24T05:14:56;101214.44;;;17.98;66.56
16190;BME280;41754;51.498;7.540;2023-06-24T05:17:24;101216.34;;;18.07;66.23
16190;BME280;41754;51.498;7.540;2023-06-24T05:19:52;101218.50;;;18.13;65.79
16190;BME280;41754;51.498;7.540;2023-06-24T05:22:20;101221.41;;;18.22;65.78
16190;BME280;41754;51.498;7.540;2023-06-24T05:24:49;101228.09;;;18.37;65.11
16190;BME280;41754;51.498;7.540;2023-06-24T05:27:17;101226.09;;;18.50;65.10
16190;BME280;41754;51.498;7.540;2023-06-24T05:29:45;101225.66;;;18.45;65.54
16190;BME280;41754;51.498;7.540;2023-06-24T05:32:14;101213.66;;;18.40;65.83
16190;BME280;41754;51.498;7.540;2023-06-24T05:34:43;101223.94;;;18.44;64.94
16190;BME280;41754;51.498;7.540;2023-06-24T05:37:11;101212.03;;;18.48;64.84
16190;BME280;41754;51.498;7.540;2023-06-24T05:39:39;101216.50;;;18.59;64.13
16190;BME280;41754;51.498;7.540;2023-06-24T05:42:09;101224.47;;;18.59;64.01
16190;BME280;41754;51.498;7.540;2023-06-24T05:44:37;101219.41;;;18.56;64.21
16190;BME280;41754;51.498;7.540;2023-06-24T05:47:05;101219.53;;;18.54;64.06
16190;BME280;41754;51.498;7.540;2023-06-24T05:49:32;101228.66;;;18.52;63.61
16190;BME280;41754;51.498;7.540;2023-06-24T05:52:00;101224.22;;;18.62;63.35
16190;BME280;41754;51.498;7.540;2023-06-24T05:54:29;101223.19;;;18.75;63.24
16190;BME280;41754;51.498;7.540;2023-06-24T05:56:57;101224.69;;;18.88;63.22
16190;BME280;41754;51.498;7.540;2023-06-24T05:59:26;101216.88;;;18.97;62.48
16190;BME280;41754;51.498;7.540;2023-06-24T06:01:54;101218.06;;;19.04;62.00
16190;BME280;41754;51.498;7.540;2023-06-24T06:04:22;101224.34;;;19.34;61.79
16190;BME280;41754;51.498;7.540;2023-06-24T06:06:50;101218.50;;;19.40;60.89
16190;BME280;41754;51.498;7.540;2023-06-24T06:09:18;101228.69;;;19.56;59.98
16190;BME280;41754;51.498;7.540;2023-06-24T06:11:46;101224.72;;;20.00;59.15
16190;BME280;41754;51.498;7.540;2023-06-24T06:14:14;101231.78;;;20.21;59.06
16190;BME280;41754;51.498;7.540;2023-06-24T06:16:43;101230.22;;;20.48;58.11
16190;BME280;41754;51.498;7.540;2023-06-24T06:19:11;101239.09;;;20.58;57.99
16190;BME280;41754;51.498;7.540;2023-06-24T06:21:39;101239.22;;;20.47;58.43
16190;BME280;41754;51.498;7.540;2023-06-24T06:24:07;101243.44;;;20.59;57.80
16190;BME280;41754;51.498;7.540;2023-06-24T06:26:41;101234.09;;;21.02;56.94
16190;BME280;41754;51.498;7.540;2023-06-24T06:29:09;101233.84;;;20.86;57.60
16190;BME280;41754;51.498;7.540;2023-06-24T06:31:37;101229.31;;;20.96;56.98
16190;BME280;41754;51.498;7.540;2023-06-24T06:34:07;101233.28;;;20.92;57.81
16190;BME280;41754;51.498;7.540;2023-06-24T06:36:35;101236.91;;;21.01;57.06
16190;BME280;41754;51.498;7.540;2023-06-24T06:39:03;101235.56;;;20.77;57.68
16190;BME280;41754;51.498;7.540;2023-06-24T06:41:31;101236.94;;;20.91;57.31
16190;BME280;41754;51.498;7.540;2023-06-24T06:43:59;101237.47;;;21.04;56.37
16190;BME280;41754;51.498;7.540;2023-06-24T06:46:27;101238.75;;;21.00;56.77
16190;BME280;41754;51.498;7.540;2023-06-24T06:48:55;101243.69;;;21.05;57.35
16190;BME280;41754;51.498;7.540;2023-06-24T06:51:25;101242.88;;;21.32;56.07
16190;BME280;41754;51.498;7.540;2023-06-24T06:53:53;101251.16;;;21.39;55.89
16190;BME280;41754;51.498;7.540;2023-06-24T06:56:23;101250.25;;;21.58;55.70
16190;BME280;41754;51.498;7.540;2023-06-24T06:58:52;101257.09;;;21.70;56.22
16190;BME280;41754;51.498;7.540;2023-06-24T07:01:20;101256.09;;;21.71;54.77
16190;BME280;41754;51.498;7.540;2023-06-24T07:03:49;101258.97;;;21.88;54.62
16190;BME280;41754;51.498;7.540;2023-06-24T07:06:17;101263.91;;;22.10;53.49
16190;BME280;41754;51.498;7.540;2023-06-24T07:08:47;101258.88;;;21.79;54.29
16190;BME280;41754;51.498;7.540;2023-06-24T07:11:15;101253.00;;;21.76;54.90
16190;BME280;41754;51.498;7.540;2023-06-24T07:13:43;101251.72;;;21.42;55.06
16190;BME280;41754;51.498;7.540;2023-06-24T07:16:12;101257.91;;;21.80;54.98
16190;BME280;41754;51.498;7.540;2023-06-24T07:18:40;101254.91;;;21.83;54.95
16190;BME280;41754;51.498;7.540;2023-06-24T07:21:08;101263.09;;;22.64;54.95
16190;BME280;41754;51.498;7.540;2023-06-24T07:23:36;101266.44;;;22.66;52.33
16190;BME280;41754;51.498;7.540;2023-06-24T07:26:05;101264.09;;;22.45;53.27
16190;BME280;41754;51.498;7.540;2023-06-24T07:28:33;101261.13;;;22.30;53.03
16190;BME280;41754;51.498;7.540;2023-06-24T07:31:01;101254.66;;;22.22;53.54
16190;BME280;41754;51.498;7.540;2023-06-24T07:33:29;101260.38;;;22.37;53.70
16190;BME280;41754;51.498;7.540;2023-06-24T07:35:57;101267.47;;;22.47;52.97
16190;BME280;41754;51.498;7.540;2023-06-24T07:38:25;101269.97;;;22.84;52.72
16190;BME280;41754;51.498;7.540;2023-06-24T07:40:53;101263.47;;;23.13;51.67
16190;BME280;41754;51.498;7.540;2023-06-24T07:43:23;101272.97;;;23.33;50.82
16190;BME280;41754;51.498;7.540;2023-06-24T07:45:51;101271.66;;;23.38;50.98
16190;BME280;41754;51.498;7.540;2023-06-24T07:48:19;101266.28;;;23.38;50.52
16190;BME280;41754;51.498;7.540;2023-06-24T07:50:47;101256.19;;;23.74;49.83
16190;BME280;41754;51.498;7.540;2023-06-24T07:53:15;101259.31;;;23.53;51.39
16190;BME280;41754;51.498;7.540;2023-06-24T07:55:43;101263.47;;;23.47;50.80
16190;BME280;41754;51.498;7.540;2023-06-24T07:58:11;101261.66;;;23.48;50.42
16190;BME280;41754;51.498;7.540;2023-06-24T08:00:41;101252.50;;;23.32;51.15
16190;BME280;41754;51.498;7.540;2023-06-24T08:03:09;101249.00;;;23.40;50.97
16190;BME280;41754;51.498;7.540;2023-06-24T08:05:37;101251.16;;;23.28;51.26
16190;BME280;41754;51.498;7.540;2023-06-24T08:08:06;101255.28;;;23.92;50.77
16190;BME280;41754;51.498;7.540;2023-06-24T08:10:34;101252.09;;;24.04;49.40
16190;BME280;41754;51.498;7.540;2023-06-24T08:13:02;101255.09;;;23.85;49.98
16190;BME280;41754;51.498;7.540;2023-06-24T08:15:30;101263.94;;;23.43;50.78
16190;BME280;41754;51.498;7.540;2023-06-24T08:18:00;101256.19;;;23.31;49.75
16190;BME280;41754;51.498;7.540;2023-06-24T08:20:28;101264.34;;;23.56;48.49
16190;BME280;41754;51.498;7.540;2023-06-24T08:22:56;101263.19;;;23.24;49.00
16190;BME280;41754;51.498;7.540;2023-06-24T08:25:24;101254.34;;;23.66;48.19
16190;BME280;41754;51.498;7.540;2023-06-24T08:27:53;101256.44;;;23.89;48.06
16190;BME280;41754;51.498;7.540;2023-06-24T08:30:21;101251.47;;;24.19;47.12
16190;BME280;41754;51.498;7.540;2023-06-24T08:32:49;101254.13;;;24.02;49.36
16190;BME280;41754;51.498;7.540;2023-06-24T08:35:18;101248.78;;;24.19;47.06
16190;BME280;41754;51.498;7.540;2023-06-24T08:37:46;101252.00;;;24.31;48.11
16190;BME280;41754;51.498;7.540;2023-06-24T08:40:14;101248.13;;;24.25;48.05
16190;BME280;41754;51.498;7.540;2023-06-24T08:42:43;101250.47;;;24.44;47.48
16190;BME280;41754;51.498;7.540;2023-06-24T08:45:11;101251.16;;;24.38;47.52
16190;BME280;41754;51.498;7.540;2023-06-24T08:47:40;101251.34;;;24.78;47.38
16190;BME280;41754;51.498;7.540;2023-06-24T08:50:11;101237.84;;;25.03;46.50
16190;BME280;41754;51.498;7.540;2023-06-24T08:52:43;101244.13;;;24.70;46.82
16190;BME280;41754;51.498;7.540;2023-06-24T08:55:13;101242.59;;;24.84;46.39
16190;BME280;41754;51.498;7.540;2023-06-24T08:57:43;101246.25;;;24.99;46.15
16190;BME280;41754;51.498;7.540;2023-06-24T09:00:12;101250.84;;;24.66;46.95
16190;BME280;41754;51.498;7.540;2023-06-24T09:02:41;101246.97;;;24.77;46.39
16190;BME280;41754;51.498;7.540;2023-06-24T09:05:10;101243.41;;;25.01;46.88
16190;BME280;41754;51.498;7.540;2023-06-24T09:07:38;101246.44;;;24.90;46.42
16190;BME280;41754;51.498;7.540;2023-06-24T09:10:08;101241.09;;;24.57;47.50
16190;BME280;41754;51.498;7.540;2023-06-24T09:12:36;101246.63;;;24.80;47.65
16190;BME280;41754;51.498;7.540;2023-06-24T09:15:05;101243.41;;;24.85;47.92
16190;BME280;41754;51.498;7.540;2023-06-24T09:17:43;101242.09;;;24.80;47.01
16190;BME280;41754;51.498;7.540;2023-06-24T09:20:13;101226.59;;;24.91;48.01
16190;BME280;41754;51.498;7.540;2023-06-24T09:22:40;101229.78;;;24.94;48.17
16190;BME280;41754;51.498;7.540;2023-06-24T09:25:16;101233.25;;;25.19;47.97
16190;BME280;41754;51.498;7.540;2023-06-24T09:27:48;101227.22;;;25.09;47.98
16190;BME280;41754;51.498;7.540;2023-06-24T09:30:20;101228.66;;;24.64;48.20
16190;BME280;41754;51.498;7.540;2023-06-24T09:32:48;101229.59;;;24.05;49.46
16190;BME280;41754;51.498;7.540;2023-06-24T09:35:19;101232.47;;;24.45;49.30
16190;BME280;41754;51.498;7.540;2023-06-24T09:37:51;101233.13;;;25.05;47.13
16190;BME280;41754;51.498;7.540;2023-06-24T09:40:20;101221.31;;;25.14;46.17
16190;BME280;41754;51.498;7.540;2023-06-24T09:42:50;101215.28;;;25.60;47.91
16190;BME280;41754;51.498;7.540;2023-06-24T09:45:25;101214.03;;;25.39;46.97
16190;BME280;41754;51.498;7.540;2023-06-24T09:47:54;101207.31;;;25.18;47.01
16190;BME280;41754;51.498;7.540;2023-06-24T09:50:22;101210.19;;;25.65;47.11
16190;BME280;41754;51.498;7.540;2023-06-24T09:52:50;101205.31;;;25.60;46.01
16190;BME280;41754;51.498;7.540;2023-06-24T09:55:21;101202.59;;;25.29;45.97
16190;BME280;41754;51.498;7.540;2023-06-24T09:57:50;101201.75;;;25.68;45.55
16190;BME280;41754;51.498;7.540;2023-06-24T10:00:19;101198.75;;;26.17;44.92
16190;BME280;41754;51.498;7.540;2023-06-24T10:02:48;101200.38;;;26.03;46.35
16190;BME280;41754;51.498;7.540;2023-06-24T10:05:16;101204.19;;;26.09;46.85
16190;BME280;41754;51.498;7.540;2023-06-24T10:07:45;101201.91;;;25.35;45.46
16190;BME280;41754;51.498;7.540;2023-06-24T10:10:13;101196.94;;;25.55;45.79
16190;BME280;41754;51.498;7.540;2023-06-24T10:12:43;101193.28;;;26.02;45.24
16190;BME280;41754;51.498;7.540;2023-06-24T10:15:11;101188.84;;;25.55;45.51
16190;BME280;41754;51.498;7.540;2023-06-24T10:17:39;101181.09;;;25.52;45.54
16190;BME280;41754;51.498;7.540;2023-06-24T10:20:08;101182.09;;;25.82;44.89
16190;BME280;41754;51.498;7.540;2023-06-24T10:22:36;101187.78;;;25.96;47.81
16190;BME280;41754;51.498;7.540;2023-06-24T10:25:06;101185.34;;;26.47;42.96
16190;BME280;41754;51.498;7.540;2023-06-24T10:27:38;101178.53;;;26.51;42.28
16190;BME280;41754;51.498;7.540;2023-06-24T10:30:17;101181.16;;;26.59;43.59
16190;BME280;41754;51.498;7.540;2023-06-24T10:32:51;101169.94;;;26.33;41.52
16190;BME280;41754;51.498;7.540;2023-06-24T10:35:24;101175.84;;;26.36;41.00
16190;BME280;41754;51.498;7.540;2023-06-24T10:37:56;101176.81;;;26.58;41.36
16190;BME280;41754;51.498;7.540;2023-06-24T10:40:35;101178.94;;;26.48;42.78
16190;BME280;41754;51.498;7.540;2023-06-24T10:43:25;101162.50;;;26.20;41.82
16190;BME280;41754;51.498;7.540;2023-06-24T10:45:56;101164.09;;;26.97;40.88
16190;BME280;41754;51.498;7.540;2023-06-24T10:48:24;101155.88;;;26.60;39.55
16190;BME280;41754;51.498;7.540;2023-06-24T10:50:52;101154.41;;;27.17;38.97
16190;BME280;41754;51.498;7.540;2023-06-24T10:53:21;101146.56;;;27.23;39.33
16190;BME280;41754;51.498;7.540;2023-06-24T10:55:49;101154.28;;;27.77;38.66
16190;BME280;41754;51.498;7.540;2023-06-24T10:58:18;101149.50;;;27.79;38.49
16190;BME280;41754;51.498;7.540;2023-06-24T11:00:45;101160.25;;;27.72;38.07
16190;BME280;41754;51.498;7.540;2023-06-24T11:03:16;101157.09;;;28.12;34.82
16190;BME280;41754;51.498;7.540;2023-06-24T11:05:45;101151.31;;;29.48;35.23
16190;BME280;41754;51.498;7.540;2023-06-24T11:08:14;101149.69;;;29.74;32.28
16190;BME280;41754;51.498;7.540;2023-06-24T11:10:42;101151.09;;;29.43;31.50
16190;BME280;41754;51.498;7.540;2023-06-24T11:13:11;101141.81;;;30.06;35.46
16190;BME280;41754;51.498;7.540;2023-06-24T11:15:40;101145.91;;;31.40;34.11
16190;BME280;41754;51.498;7.540;2023-06-24T11:18:09;101149.56;;;31.98;28.88
16190;BME280;41754;51.498;7.540;2023-06-24T11:20:39;101141.78;;;31.31;28.06
16190;BME280;41754;51.498;7.540;2023-06-24T11:23:08;101140.00;;;31.12;29.40
16190;BME280;41754;51.498;7.540;2023-06-24T11:25:42;101130.91;;;31.31;31.19
16190;BME280;41754;51.498;7.540;2023-06-24T11:28:14;101135.84;;;31.86;29.54
16190;BME280;41754;51.498;7.540;2023-06-24T11:30:45;101136.19;;;31.96;29.13
16190;BME280;41754;51.498;7.540;2023-06-24T11:33:26;101140.22;;;31.87;27.99
16190;BME280;41754;51.498;7.540;2023-06-24T11:35:55;101134.53;;;33.50;28.97
16190;BME280;41754;51.498;7.540;2023-06-24T11:38:23;101128.81;;;33.70;25.41
16190;BME280;41754;51.498;7.540;2023-06-24T11:40:58;101139.31;;;33.06;27.09
16190;BME280;41754;51.498;7.540;2023-06-24T11:43:26;101143.41;;;32.78;25.92
16190;BME280;41754;51.498;7.540;2023-06-24T11:45:54;101133.22;;;31.98;27.53
16190;BME280;41754;51.498;7.540;2023-06-24T11:48:22;101126.09;;;31.33;27.28
16190;BME280;41754;51.498;7.540;2023-06-24T11:50:54;101136.09;;;32.53;24.43
16190;BME280;41754;51.498;7.540;2023-06-24T11:53:29;101135.22;;;32.60;23.21
16190;BME280;41754;51.498;7.540;2023-06-24T11:55:57;101127.25;;;32.58;24.47
16190;BME280;41754;51.498;7.540;2023-06-24T11:58:25;101134.25;;;34.48;22.00
16190;BME280;41754;51.498;7.540;2023-06-24T12:00:53;101137.44;;;34.68;21.95
16190;BME280;41754;51.498;7.540;2023-06-24T12:03:23;101122.63;;;33.33;23.97
16190;BME280;41754;51.498;7.540;2023-06-24T12:05:52;101121.03;;;33.86;24.43
16190;BME280;41754;51.498;7.540;2023-06-24T12:08:21;101121.19;;;34.26;23.23
16190;BME280;41754;51.498;7.540;2023-06-24T12:10:49;101113.94;;;33.24;22.70
16190;BME280;41754;51.498;7.540;2023-06-24T12:13:17;101112.63;;;34.11;23.25
16190;BME280;41754;51.498;7.540;2023-06-24T12:15:46;101107.88;;;33.03;23.03
16190;BME280;41754;51.498;7.540;2023-06-24T12:18:14;101108.38;;;32.63;24.25
16190;BME280;41754;51.498;7.540;2023-06-24T12:20:41;101103.38;;;35.00;22.05
16190;BME280;41754;51.498;7.540;2023-06-24T12:23:10;101103.81;;;34.80;22.51
16190;BME280;41754;51.498;7.540;2023-06-24T12:25:41;101098.50;;;35.76;22.32
16190;BME280;41754;51.498;7.540;2023-06-24T12:28:09;101098.88;;;34.29;20.83
16190;BME280;41754;51.498;7.540;2023-06-24T12:30:36;101098.13;;;34.46;22.54
16190;BME280;41754;51.498;7.540;2023-06-24T12:33:04;101095.59;;;33.97;25.45
16190;BME280;41754;51.498;7.540;2023-06-24T12:35:35;101095.47;;;35.61;21.78
16190;BME280;41754;51.498;7.540;2023-06-24T12:38:03;101092.25;;;37.20;20.23
16190;BME280;41754;51.498;7.540;2023-06-24T12:40:31;101084.72;;;36.05;18.62
16190;BME280;41754;51.498;7.540;2023-06-24T12:43:01;101079.31;;;36.10;18.04
16190;BME280;41754;51.498;7.540;2023-06-24T12:45:30;101081.69;;;36.63;19.48
16190;BME280;41754;51.498;7.540;2023-06-24T12:47:58;101083.06;;;36.82;16.02
16190;BME280;41754;51.498;7.540;2023-06-24T12:50:27;101078.81;;;36.52;16.59
16190;BME280;41754;51.498;7.540;2023-06-24T12:52:58;101085.69;;;36.55;17.53
16190;BME280;41754;51.498;7.540;2023-06-24T12:55:26;101083.38;;;37.13;15.54
16190;BME280;41754;51.498;7.540;2023-06-24T12:57:54;101081.63;;;36.18;17.37
16190;BME280;41754;51.498;7.540;2023-06-24T13:00:24;101076.47;;;35.71;18.50
16190;BME280;41754;51.498;7.540;2023-06-24T13:02:52;101078.97;;;37.12;17.51